createdAt,value
2023-01-29T00:00:30.287Z,7.18
2023-01-29T00:08:49.363Z,6.90
2023-01-29T00:11:27.605Z,5.80
2023-01-29T00:14:55.258Z,6.88
2023-01-29T00:36:23.465Z,7.57
2023-01-29T00:40:47.011Z,6.57
2023-01-29T06:07:05.581Z,11.45
2023-01-29T07:18:14.537Z,5.93
2023-01-29T07:50:30.474Z,5.20
2023-01-29T07:56:50.949Z,7.90
2023-01-29T08:04:33.370Z,7.93
2023-01-29T08:08:05.614Z,7.22
2023-01-29T08:11:01.666Z,6.85
2023-01-29T08:13:28.388Z,6.45
2023-01-29T08:23:45.649Z,5.03
2023-01-29T08:26:43.569Z,5.40
2023-01-29T08:29:37.082Z,6.28
2023-01-29T08:32:05.240Z,5.60
2023-01-29T08:47:25.727Z,5.78
2023-01-29T09:37:06.736Z,5.90
2023-01-29T10:08:47.687Z,8.32
2023-01-29T10:11:29.739Z,6.82
2023-01-29T10:14:10.739Z,6.47
2023-01-29T10:25:27.898Z,6.10
2023-01-29T10:30:33.818Z,11.25
2023-01-29T10:43:00.624Z,6.72
2023-01-29T10:56:05.844Z,5.55
2023-01-29T11:01:28.357Z,6.38
2023-01-29T11:04:20.495Z,8.52
2023-01-29T11:06:50.024Z,9.07
2023-01-29T11:20:29.618Z,6.30
2023-01-29T11:23:02.743Z,7.13
2023-01-29T11:26:19.645Z,7.38
2023-01-29T11:28:59.014Z,9.13
2023-01-29T11:31:45.888Z,6.63
2023-01-29T11:34:23.079Z,9.88
2023-01-29T11:37:41.678Z,8.57
2023-01-29T11:40:54.728Z,9.65
2023-01-29T11:43:39.626Z,8.48
2023-01-29T11:46:13.874Z,10.95
2023-01-29T11:49:14.374Z,9.80
2023-01-29T11:51:52.678Z,14.32
2023-01-29T11:54:41.510Z,10.43
2023-01-29T12:07:19.890Z,7.18
2023-01-29T12:41:56.033Z,8.00
2023-01-29T12:44:51.015Z,10.95
2023-01-29T12:48:09.364Z,8.40
2023-01-29T12:56:20.608Z,7.72
2023-01-29T12:59:23.152Z,7.88
2023-01-29T13:02:48.206Z,8.48
2023-01-29T13:05:44.603Z,9.10
2023-01-29T13:08:58.535Z,10.85
2023-01-29T13:22:30.517Z,7.70
2023-01-29T13:25:23.457Z,10.02
2023-01-29T13:31:44.816Z,11.15
2023-01-29T13:35:04.013Z,10.82
2023-01-29T13:37:37.180Z,11.65
2023-01-29T13:41:07.449Z,11.90
2023-01-29T13:44:02.946Z,10.95
2023-01-29T13:54:01.889Z,8.13
2023-01-29T13:54:05.768Z,11.43
2023-01-29T13:56:40.603Z,7.97
2023-01-29T13:59:47.848Z,9.23
2023-01-29T14:02:39.428Z,11.00
2023-01-29T14:05:31.197Z,11.15
2023-01-29T14:08:45.206Z,10.38
2023-01-29T14:12:22.570Z,10.35
2023-01-29T14:15:59.469Z,11.88
2023-01-29T14:18:28.421Z,7.85
2023-01-29T14:21:07.162Z,10.43
2023-01-29T14:23:51.450Z,10.50
2023-01-29T14:26:25.958Z,10.18
2023-01-29T14:29:25.545Z,10.52
2023-01-29T14:32:09.284Z,9.25
2023-01-29T14:34:47.772Z,7.55
2023-01-29T14:37:18.672Z,10.25
2023-01-29T14:39:48.331Z,8.43
2023-01-29T14:42:24.521Z,8.73
2023-01-29T14:44:53.800Z,10.38
2023-01-29T14:47:35.160Z,10.27
2023-01-29T14:50:23.362Z,10.45
2023-01-29T14:52:53.934Z,11.55
2023-01-29T14:55:31.117Z,7.93
2023-01-29T14:57:58.900Z,7.65
2023-01-29T15:00:31.694Z,9.60
2023-01-29T15:03:01.981Z,9.68
2023-01-29T15:05:37.296Z,9.57
2023-01-29T15:08:18.290Z,8.30
2023-01-29T15:11:14.272Z,7.57
2023-01-29T15:14:08.619Z,7.03
2023-01-29T15:16:57.617Z,10.27
2023-01-29T15:19:24.186Z,7.72
2023-01-29T15:22:05.570Z,8.57
2023-01-29T15:24:32.269Z,7.93
2023-01-29T15:26:59.190Z,7.65
2023-01-29T15:29:34.360Z,10.38
2023-01-29T15:32:03.207Z,9.55
2023-01-29T15:34:29.944Z,9.80
2023-01-29T15:37:00.558Z,7.25
2023-01-29T15:39:28.578Z,9.07
2023-01-29T15:43:03.415Z,7.70
2023-01-29T15:45:53.675Z,7.20
2023-01-29T15:56:15.951Z,9.77
2023-01-29T15:59:21.171Z,9.25
2023-01-29T16:01:47.865Z,6.43
2023-01-29T16:04:24.215Z,7.25
2023-01-29T16:06:53.819Z,9.52
2023-01-29T16:09:23.687Z,9.32
2023-01-29T16:11:52.071Z,10.18
2023-01-29T16:14:23.015Z,9.73
2023-01-29T16:16:49.719Z,8.88
2023-01-29T16:19:27.644Z,8.30
2023-01-29T16:22:03.336Z,7.25
2023-01-29T16:24:32.487Z,8.90
2023-01-29T16:27:01.965Z,7.22
2023-01-29T16:29:33.443Z,7.38
2023-01-29T16:32:02.487Z,9.63
2023-01-29T16:34:38.372Z,6.05
2023-01-29T16:37:15.982Z,8.23
2023-01-29T16:39:47.013Z,8.27
2023-01-29T16:42:20.246Z,7.13
2023-01-29T16:45:24.744Z,9.18
2023-01-29T16:48:01.961Z,6.55
2023-01-29T16:50:46.197Z,9.18
2023-01-29T16:53:21.396Z,11.95
2023-01-29T16:55:49.784Z,10.00
2023-01-29T16:58:36.544Z,13.63
2023-01-29T17:01:07.948Z,11.88
2023-01-29T17:03:36.404Z,18.23
2023-01-29T17:06:11.566Z,13.48
2023-01-29T17:08:43.893Z,14.48
2023-01-29T17:11:13.977Z,15.10
2023-01-29T17:13:43.956Z,18.67
2023-01-29T17:16:29.199Z,17.92
2023-01-29T17:18:56.142Z,15.75
2023-01-29T17:21:22.788Z,16.35
2023-01-29T17:23:49.956Z,15.40
2023-01-29T17:26:16.932Z,21.98
2023-01-29T17:28:44.591Z,9.63
2023-01-29T17:31:11.126Z,16.70
2023-01-29T17:33:49.093Z,15.65
2023-01-29T17:36:37.942Z,16.50
2023-01-29T17:39:15.132Z,20.15
2023-01-29T17:41:50.399Z,17.30
2023-01-29T17:44:17.747Z,12.07
2023-01-29T17:46:45.133Z,12.52
2023-01-29T17:49:24.766Z,13.70
2023-01-29T17:51:57.381Z,11.50
2023-01-29T17:54:25.524Z,10.05
2023-01-29T17:56:53.054Z,10.02
2023-01-29T17:59:25.297Z,12.57
2023-01-29T18:01:56.108Z,11.82
2023-01-29T18:04:23.275Z,9.02
2023-01-29T18:06:51.967Z,8.38
2023-01-29T18:09:20.642Z,8.68
2023-01-29T18:11:50.803Z,11.35
2023-01-29T18:14:23.473Z,9.70
2023-01-29T18:16:50.147Z,8.88
2023-01-29T18:19:31.723Z,12.95
2023-01-29T18:21:58.418Z,10.75
2023-01-29T18:24:26.504Z,13.57
2023-01-29T18:26:53.129Z,11.23
2023-01-29T18:29:19.747Z,15.15
2023-01-29T18:31:49.134Z,12.98
2023-01-29T18:34:16.190Z,9.45
2023-01-29T18:36:46.971Z,13.65
2023-01-29T18:39:15.649Z,15.35
2023-01-29T18:41:42.233Z,10.90
2023-01-29T18:44:10.511Z,13.40
2023-01-29T18:46:54.530Z,10.65
2023-01-29T18:49:21.254Z,9.43
2023-01-29T18:51:48.029Z,13.68
2023-01-29T18:54:14.769Z,11.60
2023-01-29T18:57:13.194Z,10.38
2023-01-29T18:59:27.906Z,11.85
2023-01-29T19:01:54.587Z,12.95
2023-01-29T19:04:21.365Z,12.63
2023-01-29T19:06:48.012Z,15.07
2023-01-29T19:09:14.945Z,13.55
2023-01-29T19:11:41.541Z,11.70
2023-01-29T19:14:08.005Z,10.73
2023-01-29T19:16:34.597Z,12.68
2023-01-29T19:19:39.331Z,18.73
2023-01-29T19:23:08.579Z,23.73
2023-01-29T19:25:29.019Z,15.63
2023-01-29T19:27:55.609Z,12.75
2023-01-29T19:30:25.565Z,11.57
2023-01-29T19:32:53.230Z,13.85
2023-01-29T19:35:20.116Z,13.65
2023-01-29T19:37:46.991Z,12.13
2023-01-29T19:40:13.676Z,16.63
2023-01-29T19:42:41.038Z,12.75
2023-01-29T19:45:08.697Z,9.88
2023-01-29T19:47:40.534Z,11.13
2023-01-29T19:50:08.642Z,12.25
2023-01-29T19:52:50.289Z,9.68
2023-01-29T19:55:18.681Z,12.13
2023-01-29T19:57:45.371Z,10.45
2023-01-29T20:00:12.627Z,12.55
2023-01-29T20:02:39.216Z,9.82
2023-01-29T20:05:07.995Z,11.25
2023-01-29T20:07:38.779Z,13.40
2023-01-29T20:10:07.309Z,12.27
2023-01-29T20:12:34.680Z,15.57
2023-01-29T20:15:08.512Z,9.63
2023-01-29T20:17:35.333Z,11.60
2023-01-29T20:20:02.637Z,11.18
2023-01-29T20:22:29.688Z,13.10
2023-01-29T20:24:57.655Z,9.50
2023-01-29T20:27:36.685Z,11.93
2023-01-29T20:30:28.473Z,12.52
2023-01-29T20:32:54.901Z,11.68
2023-01-29T20:38:34.782Z,9.52
2023-01-29T20:41:19.693Z,17.42
2023-01-29T20:43:47.515Z,11.90
2023-01-29T20:46:14.748Z,13.40
2023-01-29T20:48:42.081Z,15.43
2023-01-29T20:51:15.424Z,10.30
2023-01-29T20:53:45.144Z,10.68
2023-01-29T20:56:12.649Z,11.55
2023-01-29T20:58:40.888Z,11.07
2023-01-29T21:01:10.727Z,9.18
2023-01-29T21:03:39.637Z,11.75
2023-01-29T21:06:07.184Z,16.30
2023-01-29T21:08:35.366Z,12.25
2023-01-29T21:11:02.874Z,12.27
2023-01-29T21:13:29.516Z,12.77
2023-01-29T21:15:56.184Z,10.07
2023-01-29T21:18:22.659Z,9.30
2023-01-29T21:20:50.282Z,13.55
2023-01-29T21:23:17.011Z,10.25
2023-01-29T21:25:49.176Z,12.75
2023-01-29T21:28:26.160Z,10.52
2023-01-29T21:31:16.491Z,12.20
2023-01-29T21:33:57.478Z,11.90
2023-01-29T21:36:39.997Z,10.52
2023-01-29T21:39:37.188Z,12.60
2023-01-29T21:51:05.776Z,8.63
2023-01-29T22:04:06.488Z,8.55
2023-01-29T22:07:20.088Z,8.98
2023-01-29T22:10:12.786Z,9.65
2023-01-29T22:12:59.325Z,8.85
2023-01-29T22:16:17.364Z,9.07
2023-01-29T22:19:14.156Z,10.57
2023-01-29T22:21:59.172Z,8.13
2023-01-29T22:28:01.187Z,9.85
2023-01-29T22:30:53.405Z,10.52
2023-01-29T22:33:44.581Z,8.85
2023-01-29T22:39:59.694Z,9.48
2023-01-29T22:42:28.795Z,10.48
2023-01-29T22:45:13.601Z,9.00
2023-01-29T22:47:58.666Z,11.10
2023-01-29T22:50:43.092Z,9.18
2023-01-29T22:57:24.374Z,8.80
2023-01-29T23:00:18.888Z,8.48
2023-01-29T23:03:12.393Z,9.52
2023-01-29T23:06:00.248Z,8.68
2023-01-29T23:09:16.586Z,9.30
2023-01-29T23:11:41.929Z,9.50
2023-01-29T23:15:15.314Z,7.95
2023-01-29T23:17:02.279Z,9.23
2023-01-29T23:22:08.782Z,11.10
2023-01-29T23:25:02.804Z,11.30
2023-01-29T23:27:51.343Z,9.68
2023-01-29T23:30:45.277Z,8.73
2023-01-29T23:33:35.905Z,12.20
2023-01-29T23:36:28.579Z,8.93
2023-01-29T23:39:07.224Z,7.93
2023-01-29T23:41:56.730Z,10.75
2023-01-29T23:44:44.015Z,8.85
2023-01-29T23:47:38.319Z,7.18
2023-01-29T23:50:28.571Z,8.55
2023-01-29T23:53:15.041Z,10.00
